createdAt,value
2018-11-06T00:01:58.525Z,47.67
2018-11-06T00:04:31.981Z,45.78
2018-11-06T00:06:59.578Z,46.80
2018-11-06T00:09:27.399Z,41.40
2018-11-06T00:11:54.886Z,47.63
2018-11-06T00:14:22.438Z,46.57
2018-11-06T00:16:50.138Z,48.55
2018-11-06T00:19:18.094Z,50.55
2018-11-06T00:21:45.790Z,45.60
2018-11-06T00:24:13.575Z,52.17
2018-11-06T00:26:41.216Z,49.30
2018-11-06T00:29:08.837Z,45.20
2018-11-06T00:31:36.506Z,40.85
2018-11-06T00:34:04.641Z,45.10
2018-11-06T00:36:32.247Z,56.00
2018-11-06T00:38:59.907Z,52.58
2018-11-06T00:41:27.570Z,50.33
2018-11-06T00:43:55.267Z,43.77
2018-11-06T00:46:22.900Z,46.73
2018-11-06T00:48:50.530Z,50.90
2018-11-06T00:51:18.154Z,44.63
2018-11-06T00:53:46.146Z,54.13
2018-11-06T00:56:13.748Z,48.43
2018-11-06T00:58:41.310Z,50.37
2018-11-06T01:01:08.864Z,52.55
2018-11-06T01:03:42.101Z,47.43
2018-11-06T01:06:09.735Z,54.87
2018-11-06T01:08:37.394Z,46.23
2018-11-06T01:11:05.171Z,52.50
2018-11-06T01:13:32.825Z,47.40
2018-11-06T01:16:00.486Z,56.93
2018-11-06T01:18:28.182Z,50.90
2018-11-06T01:20:55.838Z,49.13
2018-11-06T01:23:23.442Z,47.77
2018-11-06T01:25:51.049Z,47.97
2018-11-06T01:28:18.653Z,53.73
2018-11-06T01:30:46.271Z,48.70
2018-11-06T01:33:13.894Z,53.25
2018-11-06T01:35:41.547Z,53.50
2018-11-06T01:38:09.188Z,59.47
2018-11-06T01:40:36.833Z,55.13
2018-11-06T01:43:04.637Z,49.33
2018-11-06T01:45:32.355Z,51.83
2018-11-06T01:48:00.018Z,54.67
2018-11-06T01:50:27.685Z,61.37
2018-11-06T01:52:55.323Z,57.90
2018-11-06T01:55:22.951Z,54.25
2018-11-06T01:57:50.563Z,52.80
2018-11-06T02:00:18.848Z,50.90
2018-11-06T02:02:46.751Z,55.03
2018-11-06T02:05:15.601Z,52.63
2018-11-06T02:07:44.509Z,54.43
2018-11-06T02:10:13.069Z,62.53
2018-11-06T02:12:41.495Z,54.33
2018-11-06T02:15:09.715Z,54.63
2018-11-06T02:17:38.111Z,53.40
2018-11-06T02:20:06.483Z,57.47
2018-11-06T02:22:34.090Z,57.63
2018-11-06T02:25:01.777Z,62.73
2018-11-06T02:27:29.419Z,55.63
2018-11-06T02:29:57.029Z,56.50
2018-11-06T02:32:24.673Z,52.17
2018-11-06T02:34:52.301Z,60.10
2018-11-06T02:37:19.959Z,56.20
2018-11-06T02:39:47.575Z,52.87
2018-11-06T02:42:15.239Z,56.35
2018-11-06T02:44:42.939Z,51.20
2018-11-06T02:47:10.539Z,55.78
2018-11-06T02:49:38.564Z,54.25
2018-11-06T02:52:06.193Z,54.35
2018-11-06T02:54:33.815Z,54.17
2018-11-06T02:57:01.431Z,61.63
2018-11-06T02:59:29.098Z,58.58
2018-11-06T03:01:58.982Z,52.08
2018-11-06T03:04:26.771Z,59.90
2018-11-06T03:06:54.465Z,55.20
2018-11-06T03:09:22.089Z,57.85
2018-11-06T03:11:49.789Z,59.20
2018-11-06T03:14:17.489Z,63.47
2018-11-06T03:16:45.220Z,51.70
2018-11-06T03:19:12.841Z,58.75
2018-11-06T03:21:40.499Z,59.57
2018-11-06T03:24:08.371Z,60.23
2018-11-06T03:26:36.032Z,58.23
2018-11-06T03:29:04.016Z,57.97
2018-11-06T03:31:31.707Z,56.90
2018-11-06T03:33:59.518Z,58.45
2018-11-06T03:36:27.157Z,60.23
2018-11-06T03:38:54.762Z,58.83
2018-11-06T03:41:22.402Z,59.53
2018-11-06T03:43:50.022Z,56.43
2018-11-06T03:46:17.634Z,59.77
2018-11-06T03:48:45.238Z,61.58
2018-11-06T03:51:12.892Z,59.30
2018-11-06T03:53:40.536Z,62.40
2018-11-06T03:56:08.736Z,54.08
2018-11-06T03:58:36.625Z,55.90
2018-11-06T04:01:04.449Z,59.23
2018-11-06T04:03:32.049Z,58.23
2018-11-06T04:05:59.649Z,60.95
2018-11-06T04:08:27.269Z,60.20
2018-11-06T04:10:54.861Z,68.90
2018-11-06T04:13:22.483Z,54.38
2018-11-06T04:15:50.179Z,56.40
2018-11-06T04:18:17.911Z,55.70
2018-11-06T04:20:45.633Z,65.30
2018-11-06T04:23:13.290Z,57.35
2018-11-06T04:25:40.957Z,57.17
2018-11-06T04:28:08.597Z,58.28
2018-11-06T04:30:36.287Z,61.70
2018-11-06T04:33:03.989Z,55.57
2018-11-06T04:35:38.477Z,69.20
2018-11-06T04:38:06.149Z,62.63
2018-11-06T04:40:33.854Z,57.50
2018-11-06T04:43:01.506Z,57.20
2018-11-06T04:45:29.142Z,67.07
2018-11-06T04:47:56.799Z,57.60
2018-11-06T04:50:25.346Z,60.23
2018-11-06T04:52:53.052Z,54.90
2018-11-06T04:55:20.708Z,67.73
2018-11-06T04:57:48.374Z,62.70
2018-11-06T05:00:16.041Z,56.90
2018-11-06T05:02:43.996Z,62.25
2018-11-06T05:05:12.182Z,57.15
2018-11-06T05:07:40.219Z,61.88
2018-11-06T05:10:10.414Z,57.60
2018-11-06T05:12:38.219Z,52.97
2018-11-06T05:15:07.752Z,58.63
2018-11-06T05:17:35.454Z,59.70
2018-11-06T05:20:04.366Z,61.58
2018-11-06T05:25:07.232Z,60.80
2018-11-06T05:27:34.909Z,59.70
2018-11-06T05:30:02.561Z,62.35
2018-11-06T05:32:30.226Z,62.90
2018-11-06T05:34:58.033Z,63.27
2018-11-06T05:37:25.721Z,67.93
2018-11-06T05:40:10.987Z,61.03
2018-11-06T05:42:38.624Z,56.63
2018-11-06T05:45:06.363Z,58.73
2018-11-06T05:47:33.955Z,60.17
2018-11-06T05:50:01.658Z,61.87
2018-11-06T05:52:29.359Z,66.80
2018-11-06T05:54:57.057Z,59.97
2018-11-06T05:57:24.775Z,55.23
2018-11-06T05:59:52.680Z,59.97
2018-11-06T06:02:20.370Z,57.73
2018-11-06T06:04:48.014Z,60.20
2018-11-06T06:07:15.734Z,56.20
2018-11-06T06:09:44.316Z,58.45
2018-11-06T06:12:11.997Z,60.50
2018-11-06T06:14:39.649Z,59.00
2018-11-06T06:17:07.636Z,56.20
2018-11-06T06:19:35.587Z,59.33
2018-11-06T06:22:03.591Z,57.83
2018-11-06T06:24:31.292Z,61.80
2018-11-06T06:26:59.115Z,64.58
2018-11-06T06:29:27.135Z,52.63
2018-11-06T06:31:54.817Z,54.58
2018-11-06T06:34:22.421Z,61.90
2018-11-06T06:36:50.052Z,57.80
2018-11-06T06:39:17.688Z,69.47
2018-11-06T06:41:45.326Z,66.30
2018-11-06T06:44:12.930Z,60.40
2018-11-06T06:46:40.683Z,61.07
2018-11-06T06:49:08.315Z,54.93
2018-11-06T06:51:35.947Z,61.70
2018-11-06T06:54:03.675Z,50.10
2018-11-06T06:56:31.287Z,55.30
2018-11-06T06:58:58.962Z,61.57
2018-11-06T07:01:26.601Z,53.10
2018-11-06T07:03:54.648Z,53.40
2018-11-06T07:06:22.352Z,55.83
2018-11-06T07:08:49.949Z,59.55
2018-11-06T07:11:17.814Z,57.53
2018-11-06T07:13:45.415Z,53.23
2018-11-06T07:16:13.079Z,54.47
2018-11-06T07:18:40.809Z,53.05
2018-11-06T07:21:08.459Z,49.40
2018-11-06T07:23:36.124Z,64.40
2018-11-06T07:26:04.033Z,52.50
2018-11-06T07:28:31.683Z,53.73
2018-11-06T07:30:59.357Z,60.07
2018-11-06T07:33:27.052Z,50.83
2018-11-06T07:35:54.826Z,46.37
2018-11-06T07:38:22.449Z,49.85
2018-11-06T07:40:50.188Z,50.60
2018-11-06T07:43:17.817Z,53.97
2018-11-06T07:45:45.500Z,47.60
2018-11-06T07:48:13.162Z,47.62
2018-11-06T07:50:40.860Z,52.13
2018-11-06T07:53:08.535Z,53.63
2018-11-06T07:55:36.325Z,50.67
2018-11-06T07:58:04.099Z,48.57
2018-11-06T08:00:31.805Z,47.73
2018-11-06T08:02:59.462Z,51.13
2018-11-06T08:05:27.179Z,48.57
2018-11-06T08:07:54.901Z,40.98
2018-11-06T08:10:22.607Z,52.30
2018-11-06T08:12:52.428Z,45.83
2018-11-06T08:15:20.308Z,45.43
2018-11-06T08:17:48.533Z,39.20
2018-11-06T08:20:16.370Z,43.83
2018-11-06T08:22:44.120Z,40.43
2018-11-06T08:25:12.965Z,40.25
2018-11-06T08:27:41.718Z,44.70
2018-11-06T08:30:10.067Z,46.90
2018-11-06T08:32:38.176Z,38.87
2018-11-06T08:35:08.286Z,42.83
2018-11-06T08:37:35.926Z,46.10
2018-11-06T08:40:04.600Z,48.05
2018-11-06T08:42:32.375Z,44.77
2018-11-06T08:45:00.007Z,45.00
2018-11-06T08:47:27.708Z,52.93
2018-11-06T08:49:55.394Z,47.40
2018-11-06T08:52:23.035Z,43.70
2018-11-06T08:54:50.694Z,45.93
2018-11-06T08:57:18.508Z,48.02
2018-11-06T08:59:46.364Z,46.00
2018-11-06T09:02:14.067Z,45.50
2018-11-06T09:04:41.711Z,46.17
2018-11-06T09:07:09.407Z,47.63
2018-11-06T09:09:37.118Z,47.50
2018-11-06T09:12:05.002Z,42.70
2018-11-06T09:14:32.596Z,41.37
2018-11-06T09:17:00.288Z,43.90
2018-11-06T09:19:27.893Z,41.37
2018-11-06T09:21:55.549Z,39.47
2018-11-06T09:28:59.559Z,36.93
2018-11-06T09:31:28.190Z,43.15
2018-11-06T09:33:56.179Z,37.30
2018-11-06T09:36:24.024Z,41.67
2018-11-06T09:38:51.696Z,37.67
2018-11-06T09:41:19.473Z,42.60
2018-11-06T09:43:47.046Z,35.70
2018-11-06T09:46:14.764Z,35.53
2018-11-06T09:48:42.425Z,37.57
2018-11-06T09:51:10.161Z,33.47
2018-11-06T09:53:37.865Z,38.88
2018-11-06T09:56:06.079Z,37.70
2018-11-06T09:58:33.810Z,35.43
2018-11-06T10:01:01.418Z,37.73
2018-11-06T10:03:29.109Z,37.83
2018-11-06T10:05:56.895Z,36.70
2018-11-06T10:08:24.660Z,40.67
2018-11-06T10:10:52.341Z,34.73
2018-11-06T10:13:19.939Z,38.60
2018-11-06T10:15:47.648Z,36.10
2018-11-06T10:18:15.281Z,38.53
2018-11-06T10:20:42.917Z,37.67
2018-11-06T10:23:10.517Z,38.83
2018-11-06T10:25:38.155Z,33.97
2018-11-06T10:28:05.749Z,40.65
2018-11-06T10:30:33.414Z,39.13
2018-11-06T10:33:01.023Z,34.67
2018-11-06T10:35:28.690Z,39.42
2018-11-06T10:37:56.442Z,37.20
2018-11-06T10:40:24.098Z,35.68
2018-11-06T10:42:51.783Z,37.15
2018-11-06T10:45:19.883Z,37.30
2018-11-06T10:47:48.000Z,47.50
2018-11-06T10:50:16.248Z,36.93
2018-11-06T10:52:44.489Z,35.00
2018-11-06T10:55:12.237Z,36.97
2018-11-06T10:57:40.448Z,32.73
2018-11-06T11:00:15.766Z,34.20
2018-11-06T11:02:49.061Z,32.90
2018-11-06T11:05:17.062Z,30.33
2018-11-06T11:07:44.815Z,33.37
2018-11-06T11:10:12.586Z,30.55
2018-11-06T11:12:40.580Z,32.45
2018-11-06T11:15:08.098Z,27.48
2018-11-06T11:17:35.978Z,29.83
2018-11-06T11:20:04.662Z,28.03
2018-11-06T11:22:32.339Z,28.83
2018-11-06T11:25:00.004Z,25.20
2018-11-06T11:27:27.699Z,22.65
2018-11-06T11:29:55.426Z,33.20
2018-11-06T11:32:23.098Z,28.20
2018-11-06T11:34:50.803Z,24.40
2018-11-06T11:37:23.070Z,28.42
2018-11-06T11:39:50.678Z,31.77
2018-11-06T11:42:18.362Z,25.35
2018-11-06T11:44:46.232Z,25.20
2018-11-06T11:47:13.864Z,31.47
2018-11-06T11:49:41.496Z,25.00
2018-11-06T11:52:09.162Z,23.80
2018-11-06T11:54:36.812Z,25.12
2018-11-06T11:57:04.794Z,23.23
2018-11-06T11:59:32.426Z,25.47
2018-11-06T12:02:00.124Z,26.13
2018-11-06T12:04:27.920Z,27.50
2018-11-06T12:06:55.594Z,24.35
2018-11-06T12:09:23.302Z,21.90
2018-11-06T12:11:50.958Z,32.00
2018-11-06T12:14:18.634Z,25.70
2018-11-06T12:16:46.317Z,22.53
2018-11-06T12:19:14.001Z,27.80
2018-11-06T12:21:41.662Z,26.60
2018-11-06T12:24:10.536Z,24.95
2018-11-06T12:26:38.142Z,31.17
2018-11-06T12:29:05.970Z,21.83
2018-11-06T12:31:33.657Z,25.10
2018-11-06T12:34:03.244Z,23.87
2018-11-06T12:36:30.932Z,27.17
2018-11-06T12:38:58.625Z,23.87
2018-11-06T12:41:26.277Z,28.35
2018-11-06T12:43:53.996Z,24.90
2018-11-06T12:46:21.649Z,23.07
2018-11-06T12:48:49.492Z,28.20
2018-11-06T12:51:17.139Z,27.75
2018-11-06T12:53:44.777Z,26.77
2018-11-06T12:56:12.510Z,24.07
2018-11-06T12:58:40.108Z,24.80
2018-11-06T13:01:07.781Z,28.25
2018-11-06T13:03:35.377Z,25.23
2018-11-06T13:06:03.024Z,27.77
2018-11-06T13:08:30.562Z,31.33
2018-11-06T13:10:58.759Z,24.70
2018-11-06T13:13:26.603Z,33.10
2018-11-06T13:15:54.478Z,23.70
2018-11-06T13:18:21.959Z,28.83
2018-11-06T13:20:49.656Z,26.07
2018-11-06T13:23:17.388Z,28.98
2018-11-06T13:25:45.221Z,26.23
2018-11-06T13:28:12.860Z,25.30
2018-11-06T13:30:40.534Z,32.57
2018-11-06T13:33:08.310Z,28.17
2018-11-06T13:35:35.900Z,24.40
2018-11-06T13:38:03.641Z,29.35
2018-11-06T13:40:31.917Z,30.65
2018-11-06T13:42:59.751Z,29.07
2018-11-06T13:45:27.509Z,27.52
2018-11-06T13:47:55.091Z,29.60
2018-11-06T13:50:22.768Z,29.73
2018-11-06T13:52:50.498Z,27.53
2018-11-06T13:55:18.188Z,30.27
2018-11-06T13:57:46.353Z,26.87
2018-11-06T14:00:16.278Z,25.90
2018-11-06T14:02:44.145Z,33.73
2018-11-06T14:05:12.177Z,32.30
2018-11-06T14:07:39.902Z,30.53
2018-11-06T14:10:07.986Z,24.15
2018-11-06T14:12:35.736Z,28.37
2018-11-06T14:15:03.348Z,29.53
2018-11-06T14:17:31.025Z,32.50
2018-11-06T14:19:58.715Z,34.90
2018-11-06T14:22:26.435Z,35.30
2018-11-06T14:24:54.177Z,35.03
2018-11-06T14:27:21.794Z,34.55
2018-11-06T14:29:49.438Z,36.10
2018-11-06T14:32:17.318Z,39.37
2018-11-06T14:34:44.897Z,45.80
2018-11-06T14:37:12.503Z,44.18
2018-11-06T14:39:40.203Z,42.73
2018-11-06T14:42:07.879Z,42.70
2018-11-06T14:44:36.153Z,48.33
2018-11-06T14:47:03.840Z,50.83
2018-11-06T14:49:31.454Z,53.08
2018-11-06T14:51:59.128Z,47.40
2018-11-06T14:54:26.788Z,46.07
2018-11-06T14:56:54.456Z,52.10
2018-11-06T14:59:22.319Z,45.30
2018-11-06T15:01:49.940Z,42.95
2018-11-06T15:04:17.578Z,47.27
2018-11-06T15:06:45.247Z,42.97
2018-11-06T15:09:12.937Z,49.08
2018-11-06T15:11:40.644Z,50.80
2018-11-06T15:14:08.479Z,43.78
2018-11-06T15:16:36.159Z,46.48
2018-11-06T15:19:04.341Z,45.03
2018-11-06T15:21:31.980Z,49.13
2018-11-06T15:23:59.683Z,51.10
2018-11-06T15:26:27.403Z,45.93
2018-11-06T15:28:55.096Z,47.00
2018-11-06T15:31:22.964Z,49.13
2018-11-06T15:33:50.660Z,56.10
2018-11-06T15:36:18.343Z,57.62
2018-11-06T15:38:45.980Z,48.30
2018-11-06T15:41:13.746Z,50.97
2018-11-06T15:43:41.408Z,51.87
2018-11-06T15:46:09.070Z,51.65
2018-11-06T15:48:36.783Z,49.60
2018-11-06T15:51:04.602Z,52.73
2018-11-06T15:53:32.242Z,58.15
2018-11-06T15:55:59.876Z,50.10
2018-11-06T15:58:27.581Z,50.47
2018-11-06T16:00:55.260Z,53.23
2018-11-06T16:03:23.135Z,54.03
2018-11-06T16:05:50.797Z,53.28
2018-11-06T16:08:18.479Z,57.30
2018-11-06T16:10:46.058Z,53.77
2018-11-06T16:13:13.832Z,61.70
2018-11-06T16:15:41.541Z,60.48
2018-11-06T16:18:10.265Z,52.80
2018-11-06T16:20:37.944Z,52.20
2018-11-06T16:23:05.625Z,55.12
2018-11-06T16:25:33.473Z,53.35
2018-11-06T16:28:01.107Z,55.30
2018-11-06T16:30:28.747Z,54.80
2018-11-06T16:32:56.468Z,47.53
2018-11-06T16:35:24.134Z,51.25
2018-11-06T16:37:52.283Z,58.30
2018-11-06T16:40:20.159Z,52.98
2018-11-06T16:42:48.262Z,58.40
2018-11-06T16:45:18.392Z,51.63
2018-11-06T16:47:46.824Z,59.60
2018-11-06T16:50:15.386Z,59.13
2018-11-06T16:52:43.041Z,56.80
2018-11-06T16:55:11.169Z,50.98
2018-11-06T16:57:40.109Z,59.50
2018-11-06T17:00:10.445Z,51.70
2018-11-06T17:02:38.269Z,55.23
2018-11-06T17:05:06.732Z,53.97
2018-11-06T17:07:34.389Z,54.60
2018-11-06T17:10:02.031Z,55.65
2018-11-06T17:12:29.763Z,61.13
2018-11-06T17:14:57.411Z,58.43
2018-11-06T17:17:25.748Z,58.73
2018-11-06T17:19:53.403Z,70.83
2018-11-06T17:22:21.095Z,60.80
2018-11-06T17:24:48.776Z,59.80
2018-11-06T17:27:16.477Z,64.72
2018-11-06T17:29:44.166Z,67.78
2018-11-06T17:32:11.809Z,66.27
2018-11-06T17:34:39.493Z,73.87
2018-11-06T17:37:07.163Z,70.22
2018-11-06T17:39:34.944Z,73.40
2018-11-06T17:42:02.877Z,69.53
2018-11-06T17:44:30.531Z,75.80
2018-11-06T17:46:58.163Z,69.47
2018-11-06T17:49:25.822Z,62.33
2018-11-06T17:51:53.509Z,67.60
2018-11-06T17:54:21.123Z,62.07
2018-11-06T17:56:48.786Z,61.53
2018-11-06T17:59:16.487Z,71.53
2018-11-06T18:01:44.153Z,71.33
2018-11-06T18:04:12.038Z,72.77
2018-11-06T18:06:39.796Z,72.72
2018-11-06T18:09:09.698Z,71.03
2018-11-06T18:11:38.291Z,70.17
2018-11-06T18:14:06.027Z,68.83
2018-11-06T18:16:34.091Z,65.67
2018-11-06T18:19:01.839Z,80.73
2018-11-06T18:21:29.564Z,73.55
2018-11-06T18:23:57.427Z,67.60
2018-11-06T18:26:25.336Z,77.90
2018-11-06T18:28:53.023Z,63.58
2018-11-06T18:31:20.751Z,73.23
2018-11-06T18:33:48.440Z,74.13
2018-11-06T18:36:16.135Z,68.23
2018-11-06T18:38:43.825Z,75.62
2018-11-06T18:41:11.507Z,79.80
2018-11-06T18:43:39.195Z,81.47
2018-11-06T18:46:07.178Z,73.10
2018-11-06T18:48:35.696Z,76.47
2018-11-06T18:51:03.517Z,73.62
2018-11-06T18:53:31.335Z,85.65
2018-11-06T18:55:59.006Z,77.93
2018-11-06T18:58:26.766Z,70.03
2018-11-06T19:00:54.497Z,77.10
2018-11-06T19:03:22.202Z,80.23
2018-11-06T19:05:50.030Z,74.65
2018-11-06T19:08:17.719Z,80.37
2018-11-06T19:10:45.425Z,79.25
2018-11-06T19:13:13.258Z,78.60
2018-11-06T19:15:41.002Z,88.07
2018-11-06T19:18:08.788Z,70.63
2018-11-06T19:20:36.478Z,68.27
2018-11-06T19:23:04.462Z,66.20
2018-11-06T19:25:32.187Z,71.53
2018-11-06T19:27:59.820Z,66.90
2018-11-06T19:30:27.542Z,81.67
2018-11-06T19:32:55.817Z,70.83
2018-11-06T19:35:23.473Z,71.75
2018-11-06T19:37:51.205Z,68.78
2018-11-06T19:40:19.159Z,66.47
2018-11-06T19:42:47.540Z,73.73
2018-11-06T19:45:15.320Z,67.90
2018-11-06T19:47:43.047Z,75.52
2018-11-06T19:50:12.870Z,67.80
2018-11-06T19:52:40.799Z,74.67
2018-11-06T19:55:10.081Z,70.33
2018-11-06T19:57:37.893Z,72.03
2018-11-06T20:00:12.691Z,65.70
2018-11-06T20:02:41.403Z,74.07
2018-11-06T20:05:09.302Z,64.93
2018-11-06T20:07:36.919Z,66.00
2018-11-06T20:10:06.603Z,65.52
2018-11-06T20:12:34.350Z,66.40
2018-11-06T20:15:02.083Z,62.77
2018-11-06T20:17:29.931Z,71.80
2018-11-06T20:19:57.543Z,64.85
2018-11-06T20:22:25.248Z,65.23
2018-11-06T20:24:53.006Z,61.60
2018-11-06T20:27:20.819Z,62.53
2018-11-06T20:29:48.889Z,60.78
2018-11-06T20:32:18.275Z,59.57
2018-11-06T20:34:46.153Z,60.93
2018-11-06T20:37:13.985Z,52.70
2018-11-06T20:39:41.769Z,58.17
2018-11-06T20:42:10.173Z,63.30
2018-11-06T20:44:38.688Z,57.77
2018-11-06T20:47:06.877Z,61.53
2018-11-06T20:49:35.123Z,57.20
2018-11-06T20:52:03.537Z,61.97
2018-11-06T20:54:31.449Z,57.37
2018-11-06T20:58:03.002Z,63.93
2018-11-06T21:00:30.726Z,59.70
2018-11-06T21:03:00.240Z,59.70
2018-11-06T21:05:28.304Z,60.30
2018-11-06T21:07:56.339Z,56.40
2018-11-06T21:10:27.441Z,62.27
2018-11-06T21:12:56.610Z,61.07
2018-11-06T21:15:24.430Z,63.53
2018-11-06T21:17:52.983Z,64.53
2018-11-06T21:20:21.623Z,60.87
2018-11-06T21:22:49.363Z,61.43
2018-11-06T21:25:17.333Z,64.87
2018-11-06T21:27:45.281Z,57.57
2018-11-06T21:30:15.493Z,58.10
2018-11-06T21:32:46.634Z,58.23
2018-11-06T21:35:14.892Z,55.10
2018-11-06T21:37:42.973Z,62.60
2018-11-06T21:40:14.042Z,59.57
2018-11-06T21:42:42.830Z,55.77
2018-11-06T21:45:11.829Z,56.30
2018-11-06T21:47:40.433Z,61.60
2018-11-06T21:50:09.562Z,62.50
2018-11-06T21:52:38.513Z,68.10
2018-11-06T21:55:07.763Z,53.70
2018-11-06T21:57:36.925Z,58.30
2018-11-06T22:00:09.225Z,53.73
2018-11-06T22:02:38.030Z,56.93
2018-11-06T22:05:08.208Z,49.87
2018-11-06T22:07:36.982Z,55.10
2018-11-06T22:10:07.349Z,50.90
2018-11-06T22:12:35.093Z,49.10
2018-11-06T22:15:02.844Z,51.30
2018-11-06T22:17:30.478Z,49.18
2018-11-06T22:19:58.224Z,48.67
2018-11-06T22:22:27.993Z,51.17
2018-11-06T22:24:55.723Z,47.33
2018-11-06T22:27:23.647Z,40.63
2018-11-06T22:29:51.340Z,49.53
2018-11-06T22:32:19.092Z,53.10
2018-11-06T22:34:47.797Z,50.67
2018-11-06T22:37:15.947Z,52.07
2018-11-06T22:39:44.653Z,44.77
2018-11-06T22:42:12.663Z,40.40
2018-11-06T22:44:40.423Z,42.60
2018-11-06T22:47:08.492Z,44.60
2018-11-06T22:49:36.117Z,50.67
2018-11-06T22:52:04.099Z,42.13
2018-11-06T22:54:31.945Z,45.92
2018-11-06T22:56:59.632Z,44.53
2018-11-06T22:59:27.373Z,46.60
2018-11-06T23:01:55.076Z,46.03
2018-11-06T23:04:22.696Z,44.50
2018-11-06T23:06:50.489Z,44.95
2018-11-06T23:09:18.095Z,46.77
2018-11-06T23:11:45.830Z,44.50
2018-11-06T23:14:13.474Z,40.30
2018-11-06T23:16:41.144Z,45.03
2018-11-06T23:19:08.790Z,42.70
2018-11-06T23:21:36.436Z,42.17
2018-11-06T23:24:04.200Z,42.35
2018-11-06T23:26:31.963Z,43.98
2018-11-06T23:28:59.679Z,42.67
2018-11-06T23:31:27.314Z,35.63
2018-11-06T23:33:55.273Z,44.63
2018-11-06T23:36:22.962Z,51.67
2018-11-06T23:38:50.642Z,46.28
2018-11-06T23:41:18.325Z,43.40
2018-11-06T23:43:46.017Z,41.03
2018-11-06T23:46:13.659Z,45.40
2018-11-06T23:48:41.355Z,59.30
2018-11-06T23:51:08.995Z,47.67
2018-11-06T23:53:36.671Z,42.00
2018-11-06T23:56:04.533Z,51.25
2018-11-06T23:58:32.243Z,45.80
